Time;durP1;ratioP1;P1;durP2;ratioP2;P2;SDS_P1;SDS_P2;PMS_P1;PMS_P2;Temp;Humidity;BMP_temperature;BMP_pressure;BME280_temperature;BME280_humidity;BME280_pressure;Samples;Min_cycle;Max_cycle;Signal;HPM_P1;HPM_P2
2022/10/12 00:00:29;;;;;;;6.10;1.00;;;;;;;7.80;61.91;100904.59;5059871;28;20131;-41
2022/10/12 00:02:55;;;;;;;8.85;2.97;;;;;;;7.83;61.84;100898.63;5063268;28;20067;-40
2022/10/12 00:05:22;;;;;;;8.63;1.42;;;;;;;7.82;60.75;100902.03;5062458;28;20059;-40
2022/10/12 00:07:49;;;;;;;7.07;2.58;;;;;;;7.86;61.79;100900.44;5066910;28;20165;-41
2022/10/12 00:10:17;;;;;;;6.47;1.33;;;;;;;7.86;61.60;100890.97;5059284;28;20044;-41
2022/10/12 00:12:44;;;;;;;4.55;1.15;;;;;;;7.88;60.75;100893.56;5063496;28;20044;-41
2022/10/12 00:15:11;;;;;;;4.97;1.40;;;;;;;7.87;60.69;100887.53;5064529;28;20135;-41
2022/10/12 00:17:37;;;;;;;8.23;3.60;;;;;;;7.88;61.04;100884.16;5063066;28;20049;-42
2022/10/12 00:20:05;;;;;;;5.75;1.33;;;;;;;7.89;62.28;100882.41;5064746;28;20135;-41
2022/10/12 00:22:32;;;;;;;6.10;3.17;;;;;;;7.88;62.03;100876.41;5059349;28;20127;-43
2022/10/12 00:24:59;;;;;;;8.07;1.40;;;;;;;7.88;62.02;100878.97;5054191;28;20136;-41
2022/10/12 00:27:25;;;;;;;5.55;1.92;;;;;;;7.88;61.75;100884.16;5058020;28;20165;-40
2022/10/12 00:29:52;;;;;;;5.80;3.20;;;;;;;7.90;60.95;100872.13;5056747;28;20132;-40
2022/10/12 00:32:19;;;;;;;9.07;1.55;;;;;;;7.89;62.41;100865.25;5056959;28;20060;-40
2022/10/12 00:34:46;;;;;;;7.05;3.45;;;;;;;7.89;61.77;100869.53;5061857;28;20567;-41
2022/10/12 00:37:12;;;;;;;9.50;3.45;;;;;;;7.89;61.32;100875.56;5056686;28;20051;-40
2022/10/12 00:39:39;;;;;;;6.82;2.88;;;;;;;7.89;61.30;100867.81;5055887;28;20591;-40
2022/10/12 00:42:05;;;;;;;5.07;2.72;;;;;;;7.88;62.24;100868.66;5057632;28;20135;-41
2022/10/12 00:47:31;;;;;;;6.70;1.15;;;;;;;7.88;62.01;100863.50;5027628;28;20388;-40
2022/10/12 00:50:19;;;;;;;5.80;1.65;;;;;;;7.88;61.52;100867.78;5002352;28;20077;-40
2022/10/12 00:52:58;;;;;;;7.80;2.22;;;;;;;7.91;62.65;100873.00;4997092;28;20133;-40
2022/10/12 00:55:29;;;;;;;3.53;1.05;;;;;;;7.91;61.96;100870.44;4996533;28;20466;-40
2022/10/12 00:57:56;;;;;;;7.50;1.58;;;;;;;7.91;62.41;100868.72;4993009;28;20129;-40
2022/10/12 01:00:24;;;;;;;5.95;1.50;;;;;;;7.91;62.21;100868.72;4996451;28;20182;-40
2022/10/12 01:02:53;;;;;;;4.30;1.20;;;;;;;7.92;61.38;100867.91;4994324;28;20141;-40
2022/10/12 01:05:21;;;;;;;5.90;2.05;;;;;;;7.91;62.63;100868.72;4996245;28;20137;-39
2022/10/12 01:07:48;;;;;;;14.07;1.98;;;;;;;7.89;62.00;100865.25;4998602;28;20085;-38
2022/10/12 01:10:15;;;;;;;5.53;1.17;;;;;;;7.89;62.00;100875.56;4994292;28;20141;-39
2022/10/12 01:12:43;;;;;;;8.75;1.23;;;;;;;7.88;62.56;100871.25;4999933;28;20410;-39
2022/10/12 01:15:11;;;;;;;10.43;1.88;;;;;;;7.88;63.21;100868.66;4992456;28;20124;-39
2022/10/12 01:20:33;;;;;;;7.50;3.25;;;;;;;7.84;62.63;100861.69;4991576;28;20407;-40
2022/10/12 01:37:04;;;;;;;11.48;1.35;;;;;;;7.89;63.89;100849.75;5030776;28;21161;-40
2022/10/12 01:39:40;;;;;;;8.40;2.45;;;;;;;7.92;63.33;100852.41;5000730;28;20128;-43
2022/10/12 01:42:14;;;;;;;5.95;1.35;;;;;;;7.92;63.48;100849.84;5011347;28;20511;-40
2022/10/12 01:44:41;;;;;;;5.28;1.13;;;;;;;7.94;63.58;100837.81;5000184;28;20478;-40
2022/10/12 01:47:08;;;;;;;10.18;2.22;;;;;;;7.93;63.50;100837.78;4999656;28;20077;-40
2022/10/12 01:49:35;;;;;;;4.38;1.63;;;;;;;7.93;63.59;100836.09;5001135;28;20046;-40
2022/10/12 02:00:12;;;;;;;5.72;1.52;;;;;;;8.05;63.34;100816.53;5051959;28;20395;-40
2022/10/12 02:02:54;;;;;;;7.78;1.40;;;;;;;8.00;64.16;100818.16;5007708;28;20499;-40
2022/10/12 02:10:55;;;;;;;9.38;1.50;;;;;;;7.94;63.08;100814.59;5029465;27;20413;-40
2022/10/12 02:13:25;;;;;;;4.65;1.20;;;;;;;7.92;64.04;100811.13;5018405;28;20132;-40
2022/10/12 02:15:53;;;;;;;8.57;1.50;;;;;;;7.90;63.51;100814.53;5015988;28;20107;-40
2022/10/12 02:18:22;;;;;;;6.03;1.52;;;;;;;7.87;63.07;100815.31;5012987;28;20943;-41
2022/10/12 02:20:52;;;;;;;8.90;1.15;;;;;;;7.86;64.46;100812.72;5016734;28;20132;-40
2022/10/12 02:23:22;;;;;;;5.05;1.33;;;;;;;7.83;63.32;100810.94;5014440;28;20061;-40
2022/10/12 02:25:51;;;;;;;8.38;1.65;;;;;;;7.81;62.80;100807.47;5015528;28;20092;-39
2022/10/12 02:28:23;;;;;;;8.85;1.15;;;;;;;7.80;64.09;100806.59;5016040;28;20049;-40
2022/10/12 02:30:58;;;;;;;6.05;1.17;;;;;;;7.80;63.25;100800.56;5014465;28;20493;-40
2022/10/12 02:33:34;;;;;;;5.40;1.33;;;;;;;7.78;63.84;100790.22;5029465;28;20129;-40
2022/10/12 02:36:09;;;;;;;5.95;1.00;;;;;;;7.76;64.42;100749.75;5013151;28;20054;-40
2022/10/12 02:38:43;;;;;;;7.07;1.50;;;;;;;7.69;64.34;100738.44;5029833;28;20189;-40
2022/10/12 02:41:16;;;;;;;4.35;1.90;;;;;;;7.62;64.42;100752.94;5034154;28;20135;-40
2022/10/12 02:43:49;;;;;;;4.18;1.10;;;;;;;7.59;63.98;100764.06;5032490;28;20158;-40
2022/10/12 02:46:18;;;;;;;8.05;1.83;;;;;;;7.56;63.96;100766.56;5034966;28;20053;-39
2022/10/12 02:48:47;;;;;;;9.23;1.27;;;;;;;7.53;63.84;100763.06;5031863;28;20045;-39
2022/10/12 02:51:15;;;;;;;8.63;1.20;;;;;;;7.52;64.09;100757.03;5035137;28;20571;-40
2022/10/12 02:53:43;;;;;;;6.05;1.25;;;;;;;7.52;63.98;100756.13;5035548;28;20479;-41
2022/10/12 02:56:13;;;;;;;4.15;1.45;;;;;;;7.49;63.53;100763.84;5035702;28;20076;-40
2022/10/12 02:58:42;;;;;;;7.70;1.58;;;;;;;7.45;64.57;100750.88;5032612;28;20069;-40
2022/10/12 03:01:09;;;;;;;4.13;1.25;;;;;;;7.42;64.67;100750.81;5035302;28;20670;-40
2022/10/12 03:03:36;;;;;;;5.85;1.77;;;;;;;7.39;63.32;100748.16;5029722;28;20195;-40
2022/10/12 03:06:03;;;;;;;11.20;2.33;;;;;;;7.37;64.38;100739.53;5036239;28;20770;-40
2022/10/12 03:08:30;;;;;;;7.32;2.05;;;;;;;7.36;64.68;100737.75;5032173;28;20048;-41
2022/10/12 03:11:02;;;;;;;10.00;2.88;;;;;;;7.37;63.51;100741.22;5037966;28;20136;-40
2022/10/12 03:13:29;;;;;;;4.95;1.83;;;;;;;7.35;63.55;100738.63;5054480;28;20140;-41
2022/10/12 03:16:04;;;;;;;6.22;1.58;;;;;;;7.33;64.95;100740.31;5052901;28;20059;-40
2022/10/12 03:18:33;;;;;;;4.22;1.20;;;;;;;7.35;63.95;100738.63;5031996;28;20049;-40
2022/10/12 03:21:00;;;;;;;6.03;2.30;;;;;;;7.36;65.06;100735.19;5044189;28;20132;-44
2022/10/12 03:23:26;;;;;;;9.80;1.90;;;;;;;7.37;64.67;100742.09;5039796;28;20427;-40
2022/10/12 03:25:53;;;;;;;7.25;1.90;;;;;;;7.39;65.03;100743.00;5039346;28;20065;-47
2022/10/12 03:28:20;;;;;;;5.97;1.67;;;;;;;7.41;65.35;100738.75;5039088;28;20132;-40
2022/10/12 03:30:47;;;;;;;6.13;1.60;;;;;;;7.43;63.94;100731.91;5034310;28;20060;-40
2022/10/12 03:33:13;;;;;;;8.25;2.17;;;;;;;7.46;64.62;100725.94;5036368;28;20068;-41
2022/10/12 03:35:44;;;;;;;4.28;1.80;;;;;;;7.49;64.87;100725.16;5039529;28;20617;-40
2022/10/12 03:38:11;;;;;;;12.38;2.03;;;;;;;7.51;65.43;100720.91;5040373;28;20575;-40
2022/10/12 03:40:38;;;;;;;8.65;2.42;;;;;;;7.53;64.97;100726.97;5037063;28;20570;-40
2022/10/12 03:43:05;;;;;;;10.80;2.08;;;;;;;7.55;64.15;100722.69;5030475;28;20151;-40
2022/10/12 03:45:32;;;;;;;6.68;2.28;;;;;;;7.58;64.03;100725.34;5039468;28;20040;-40
2022/10/12 03:48:00;;;;;;;4.93;2.00;;;;;;;7.59;64.29;100714.19;5039121;28;20055;-40
2022/10/12 03:50:33;;;;;;;13.88;2.08;;;;;;;7.62;64.66;100710.78;5038733;28;20052;-40
2022/10/12 03:53:02;;;;;;;12.60;2.72;;;;;;;7.65;64.21;100701.44;5040133;28;20059;-41
2022/10/12 03:55:29;;;;;;;8.82;1.65;;;;;;;7.66;64.89;100698.00;5038360;28;20049;-40
2022/10/12 03:57:56;;;;;;;10.65;2.40;;;;;;;7.67;65.65;100699.72;5036878;28;20041;-39
2022/10/12 04:00:23;;;;;;;7.30;2.15;;;;;;;7.70;64.60;100694.66;5040845;28;20136;-41
2022/10/12 04:02:50;;;;;;;12.75;2.80;;;;;;;7.72;65.74;100686.94;5043013;28;20057;-40
2022/10/12 04:05:16;;;;;;;9.38;2.53;;;;;;;7.74;64.79;100694.72;5040268;28;20581;-40
2022/10/12 04:07:43;;;;;;;13.93;2.22;;;;;;;7.77;66.03;100692.19;5039729;28;20045;-41
2022/10/12 04:10:10;;;;;;;10.05;2.75;;;;;;;7.77;65.24;100690.47;5034017;28;20176;-40
2022/10/12 04:12:36;;;;;;;13.40;3.00;;;;;;;7.79;66.31;100687.91;5037434;28;20132;-40
2022/10/12 04:15:03;;;;;;;8.57;2.63;;;;;;;7.81;65.69;100678.53;5036622;28;20132;-40
2022/10/12 04:17:30;;;;;;;12.80;2.05;;;;;;;7.81;65.28;100670.78;5037574;28;20045;-40
2022/10/12 04:19:56;;;;;;;7.72;2.20;;;;;;;7.80;66.13;100680.22;5037269;28;20132;-41
2022/10/12 04:22:23;;;;;;;11.82;2.80;;;;;;;7.80;65.24;100679.38;5043949;28;20081;-39
2022/10/12 04:24:50;;;;;;;10.45;2.63;;;;;;;7.81;65.48;100681.09;5037659;28;20120;-40
2022/10/12 04:27:17;;;;;;;11.10;2.60;;;;;;;7.81;65.87;100671.63;5039614;28;20049;-40
2022/10/12 04:29:43;;;;;;;8.13;2.20;;;;;;;7.85;65.19;100672.56;5045727;28;20076;-40
2022/10/12 04:32:10;;;;;;;7.32;1.98;;;;;;;7.86;66.26;100676.88;5038545;28;20091;-40
2022/10/12 04:34:38;;;;;;;6.13;2.50;;;;;;;7.86;65.84;100676.88;5038868;28;20084;-40
2022/10/12 04:37:05;;;;;;;7.32;2.03;;;;;;;7.87;65.99;100676.03;5039004;28;20053;-40
2022/10/12 04:39:32;;;;;;;9.15;2.35;;;;;;;7.87;65.67;100686.34;5038983;28;20076;-40
2022/10/12 04:41:58;;;;;;;7.30;2.10;;;;;;;7.88;66.46;100676.91;5039320;28;20139;-39
2022/10/12 04:44:25;;;;;;;10.15;3.65;;;;;;;7.89;65.81;100683.81;5041964;28;20507;-40
2022/10/12 04:46:57;;;;;;;12.88;2.90;;;;;;;7.89;66.13;100682.09;5035965;28;20055;-40
2022/10/12 04:49:24;;;;;;;13.27;3.40;;;;;;;7.89;66.69;100678.66;5036312;28;20083;-40
2022/10/12 04:51:50;;;;;;;13.15;2.83;;;;;;;7.90;66.91;100689.00;5039582;28;20057;-40
2022/10/12 04:54:17;;;;;;;9.07;2.25;;;;;;;7.88;66.78;100682.94;5037157;28;20463;-41
2022/10/12 04:56:44;;;;;;;9.50;2.78;;;;;;;7.87;66.50;100685.50;5037826;28;20085;-40
2022/10/12 04:59:13;;;;;;;15.15;5.75;;;;;;;7.84;66.51;100686.31;5034849;28;20080;-40
2022/10/12 05:01:40;;;;;;;11.27;3.25;;;;;;;7.80;65.69;100684.53;5039927;28;20076;-40
2022/10/12 05:04:06;;;;;;;12.70;2.42;;;;;;;7.80;67.03;100681.94;5043040;28;20812;-40
2022/10/12 05:06:33;;;;;;;9.60;2.60;;;;;;;7.79;66.62;100685.34;5038282;28;20478;-40
2022/10/12 05:09:00;;;;;;;10.98;2.38;;;;;;;7.78;66.19;100686.19;5039541;28;20650;-40
2022/10/12 05:11:26;;;;;;;11.25;2.53;;;;;;;7.77;66.28;100684.47;5036416;28;20044;-40
2022/10/12 05:13:53;;;;;;;9.80;2.20;;;;;;;7.76;65.92;100687.84;5039725;28;20140;-40
2022/10/12 05:16:20;;;;;;;6.47;2.42;;;;;;;7.74;66.07;100687.84;5031039;28;20503;-40
2022/10/12 05:18:46;;;;;;;7.32;2.47;;;;;;;7.75;67.39;100686.13;5040500;28;20132;-39
2022/10/12 05:21:13;;;;;;;6.72;2.40;;;;;;;7.74;66.68;100689.56;5036448;28;20102;-40
2022/10/12 05:23:39;;;;;;;9.13;2.28;;;;;;;7.75;66.04;100686.13;5041276;28;20059;-40
2022/10/12 05:26:06;;;;;;;11.73;2.53;;;;;;;7.75;67.29;100681.84;5040396;28;20049;-41
2022/10/12 05:28:33;;;;;;;12.02;2.67;;;;;;;7.76;67.37;100682.69;5044461;28;20131;-39
2022/10/12 05:31:06;;;;;;;12.10;2.47;;;;;;;7.76;66.89;100688.72;5039634;28;20065;-41
2022/10/12 05:33:32;;;;;;;8.63;2.22;;;;;;;7.78;66.88;100675.88;5037559;28;20072;-40
2022/10/12 05:35:59;;;;;;;12.40;3.55;;;;;;;7.78;67.26;100686.19;5043218;28;20090;-40
2022/10/12 05:38:26;;;;;;;15.73;4.00;;;;;;;7.80;66.96;100679.38;5036380;28;20055;-40
2022/10/12 05:40:53;;;;;;;11.48;2.95;;;;;;;7.81;67.84;100675.94;5036992;28;20041;-40
2022/10/12 05:43:26;;;;;;;12.05;3.20;;;;;;;7.81;66.90;100675.94;5038705;28;20045;-40
2022/10/12 05:45:52;;;;;;;8.35;2.95;;;;;;;7.80;66.48;100677.63;5040223;28;20063;-41
2022/10/12 05:48:19;;;;;;;16.02;6.45;;;;;;;7.81;66.85;100670.78;5038079;28;20188;-40
2022/10/12 05:50:46;;;;;;;7.90;2.45;;;;;;;7.81;67.63;100666.47;5043798;28;20047;-40
2022/10/12 05:53:12;;;;;;;8.15;2.80;;;;;;;7.82;67.90;100667.34;5039399;28;20077;-40
2022/10/12 05:55:39;;;;;;;7.72;2.65;;;;;;;7.82;66.65;100662.19;5039083;28;20075;-40
2022/10/12 05:58:05;;;;;;;9.40;2.30;;;;;;;7.81;67.55;100657.88;5043345;28;20412;-40
2022/10/12 06:00:32;;;;;;;10.30;2.70;;;;;;;7.82;67.10;100662.19;5038974;28;20049;-39
2022/10/12 06:02:58;;;;;;;12.93;2.50;;;;;;;7.81;67.14;100650.16;5035648;28;20057;-40
2022/10/12 06:05:25;;;;;;;7.25;1.98;;;;;;;7.81;67.13;100652.72;5034249;28;20142;-40
2022/10/12 06:07:52;;;;;;;7.38;2.13;;;;;;;7.81;67.40;100655.31;5036562;28;20213;-40
2022/10/12 06:10:18;;;;;;;9.57;2.28;;;;;;;7.80;68.30;100653.56;5036143;28;20037;-40
2022/10/12 06:12:45;;;;;;;10.90;2.63;;;;;;;7.81;68.49;100650.16;5035848;28;20128;-40
2022/10/12 06:15:11;;;;;;;13.60;2.55;;;;;;;7.81;67.70;100640.69;5037835;28;20539;-40
2022/10/12 06:17:38;;;;;;;8.20;2.13;;;;;;;7.82;68.04;100642.44;5041561;28;20676;-40
2022/10/12 06:20:05;;;;;;;8.23;2.22;;;;;;;7.85;67.70;100631.31;5036732;28;20148;-40
2022/10/12 06:22:31;;;;;;;7.15;1.80;;;;;;;7.87;68.33;100634.75;5043375;28;20049;-40
2022/10/12 06:24:58;;;;;;;12.27;2.03;;;;;;;7.88;68.34;100636.53;5037659;28;20136;-40
2022/10/12 06:27:25;;;;;;;6.70;2.25;;;;;;;7.90;67.62;100629.66;5041382;28;20588;-40
2022/10/12 06:29:51;;;;;;;7.82;2.33;;;;;;;7.93;69.07;100640.03;5037396;28;20136;-40
2022/10/12 06:32:18;;;;;;;9.02;1.63;;;;;;;7.97;69.28;100631.50;5036524;28;20089;-40
2022/10/12 06:34:45;;;;;;;9.13;2.17;;;;;;;8.02;68.95;100638.47;5032221;28;20128;-39
2022/10/12 06:37:12;;;;;;;10.68;2.78;;;;;;;8.07;68.18;100631.69;5032289;28;20073;-39
2022/10/12 06:39:59;;;;;;;9.00;2.38;;;;;;;8.13;68.22;100636.94;5036726;28;20045;-40
2022/10/12 06:42:25;;;;;;;12.90;2.50;;;;;;;8.19;68.09;100637.06;5039195;28;20053;-40
2022/10/12 06:44:52;;;;;;;11.77;2.38;;;;;;;8.26;68.27;100637.13;5035521;28;20131;-40
2022/10/12 06:47:18;;;;;;;12.13;3.28;;;;;;;8.31;68.43;100643.25;5040392;28;20160;-39
2022/10/12 06:49:45;;;;;;;11.80;2.78;;;;;;;8.37;68.43;100640.75;5037645;28;20045;-39
2022/10/12 06:52:12;;;;;;;9.63;2.75;;;;;;;8.43;68.41;100637.41;5036485;28;20129;-40
2022/10/12 06:54:40;;;;;;;7.88;2.75;;;;;;;8.47;68.47;100634.03;5036673;28;20136;-39
2022/10/12 06:57:06;;;;;;;12.23;2.78;;;;;;;8.53;69.40;100630.66;5037313;28;20147;-40
2022/10/12 06:59:33;;;;;;;10.25;2.45;;;;;;;8.59;68.65;100635.97;5042475;28;20041;-40
2022/10/12 07:01:59;;;;;;;7.38;2.35;;;;;;;8.64;68.38;100634.31;5042121;28;20724;-40
2022/10/12 07:04:26;;;;;;;11.57;2.28;;;;;;;8.69;68.76;100632.69;5041005;28;20045;-40
2022/10/12 07:06:53;;;;;;;8.13;1.90;;;;;;;8.74;68.71;100625.88;5038939;28;20052;-40
2022/10/12 07:09:19;;;;;;;7.13;2.08;;;;;;;8.81;68.49;100625.97;5041430;28;20053;-40
2022/10/12 07:11:46;;;;;;;12.25;3.28;;;;;;;8.86;69.23;100621.72;5042175;28;20139;-40
2022/10/12 07:14:12;;;;;;;9.90;2.67;;;;;;;8.92;68.34;100624.38;5041967;28;20087;-39
2022/10/12 07:16:39;;;;;;;11.63;2.80;;;;;;;8.97;68.66;100622.72;5038248;28;20393;-40
2022/10/12 07:19:06;;;;;;;8.82;2.80;;;;;;;9.02;68.55;100619.34;5038378;28;20566;-39
2022/10/12 07:21:32;;;;;;;8.55;2.50;;;;;;;9.09;68.58;100616.00;5040291;28;20504;-40
2022/10/12 07:23:59;;;;;;;10.52;3.17;;;;;;;9.12;69.28;100609.13;5040726;28;20072;-39
2022/10/12 07:26:25;;;;;;;8.40;2.80;;;;;;;9.18;68.68;100610.91;5035876;28;20069;-39
2022/10/12 07:28:52;;;;;;;8.48;2.53;;;;;;;9.22;69.05;100597.19;5035932;28;20132;-40
2022/10/12 07:31:19;;;;;;;7.93;2.22;;;;;;;9.28;69.25;100603.28;5037058;28;20544;-40
2022/10/12 07:33:45;;;;;;;5.82;2.35;;;;;;;9.33;69.28;100596.44;5040955;28;20059;-40
2022/10/12 07:36:12;;;;;;;8.27;1.88;;;;;;;9.39;68.90;100588.75;5040020;28;20129;-40
2022/10/12 07:38:43;;;;;;;6.28;2.47;;;;;;;9.46;69.34;100589.69;5040936;28;20053;-40
2022/10/12 07:41:11;;;;;;;10.13;2.05;;;;;;;9.55;69.17;100588.94;5043326;28;20055;-40
2022/10/12 07:43:38;;;;;;;6.05;1.92;;;;;;;9.61;69.05;100591.56;5044490;28;20070;-40
2022/10/12 07:46:05;;;;;;;8.63;2.08;;;;;;;9.67;68.43;100585.59;5043488;28;20120;-40
2022/10/12 07:48:33;;;;;;;5.43;1.27;;;;;;;9.71;68.79;100585.63;5046393;28;20072;-40
2022/10/12 07:51:04;;;;;;;4.82;2.08;;;;;;;9.75;69.18;100579.63;5045123;28;20140;-40
2022/10/12 07:53:33;;;;;;;10.02;1.85;;;;;;;9.81;68.95;100573.66;5042562;28;20060;-40
2022/10/12 07:56:01;;;;;;;8.73;1.80;;;;;;;9.85;68.98;100570.22;5045445;28;20127;-40
2022/10/12 07:58:28;;;;;;;9.25;2.13;;;;;;;9.89;69.11;100573.69;5044426;28;20412;-40
2022/10/12 08:00:54;;;;;;;7.85;2.05;;;;;;;9.91;69.27;100572.00;5038768;28;20143;-41
2022/10/12 08:03:21;;;;;;;6.15;1.70;;;;;;;9.98;68.70;100573.78;5045116;28;20045;-40
2022/10/12 08:05:47;;;;;;;8.40;1.98;;;;;;;10.03;68.93;100577.28;5047435;28;20482;-40
2022/10/12 08:08:14;;;;;;;9.50;2.25;;;;;;;10.10;68.40;100564.41;5043593;28;20050;-40
2022/10/12 08:10:41;;;;;;;10.55;2.20;;;;;;;10.14;68.97;100568.75;5044653;28;20045;-40
2022/10/12 08:13:07;;;;;;;5.82;1.77;;;;;;;10.17;68.85;100566.19;5042769;28;20508;-40
2022/10/12 08:15:34;;;;;;;11.23;2.25;;;;;;;10.24;69.04;100565.34;5047309;28;20160;-40
2022/10/12 08:18:00;;;;;;;7.28;1.90;;;;;;;10.26;68.61;100557.59;5047318;28;20080;-40
2022/10/12 08:20:27;;;;;;;6.50;1.42;;;;;;;10.37;69.08;100571.47;5047022;28;20069;-40
2022/10/12 08:22:54;;;;;;;4.80;1.35;;;;;;;10.44;68.41;100575.00;5042623;28;20076;-41
2022/10/12 08:25:20;;;;;;;10.13;2.22;;;;;;;10.50;68.52;100577.63;5038286;28;20103;-41
2022/10/12 08:27:47;;;;;;;9.00;2.10;;;;;;;10.60;68.62;100581.13;5044556;28;20508;-40
2022/10/12 08:30:14;;;;;;;9.15;2.05;;;;;;;10.64;68.52;100584.63;5038357;28;20049;-40
2022/10/12 08:32:40;;;;;;;8.13;1.77;;;;;;;10.78;67.94;100588.13;5041982;28;20045;-40
2022/10/12 08:35:07;;;;;;;5.70;1.77;;;;;;;10.91;68.27;100593.41;5044577;28;20111;-40
2022/10/12 08:37:34;;;;;;;7.30;2.17;;;;;;;11.01;67.88;100584.78;5042163;28;20467;-40
2022/10/12 08:40:00;;;;;;;7.05;1.58;;;;;;;11.12;68.05;100576.19;5045572;28;20139;-40
2022/10/12 08:42:43;;;;;;;6.38;1.85;;;;;;;11.22;68.00;100575.38;5044029;28;20131;-40
2022/10/12 08:47:54;;;;;;;9.70;2.13;;;;;;;12.44;68.42;100558.16;5079156;27;20406;-41
2022/10/12 08:50:32;;;;;;;9.85;3.13;;;;;;;13.59;65.47;100562.00;5022658;28;20046;-42
2022/10/12 08:53:09;;;;;;;7.35;2.55;;;;;;;14.06;64.15;100561.63;5035517;28;20132;-41
2022/10/12 08:55:39;;;;;;;;;;;;;;;13.95;63.11;100564.31;5053206;28;20468;-41
2022/10/12 08:58:15;;;;;;;12.35;3.55;;;;;;;13.77;62.37;100575.72;5062871;28;19971;-41
2022/10/12 09:00:47;;;;;;;8.05;3.00;;;;;;;13.55;63.17;100578.50;5060041;28;20139;-41
2022/10/12 09:03:27;;;;;;;13.90;3.42;;;;;;;13.37;62.97;100587.22;5059897;28;20519;-41
2022/10/12 09:06:09;;;;;;;11.20;3.47;;;;;;;13.30;63.34;100599.41;5042220;28;20041;-42
2022/10/12 09:11:56;;;;;;;6.93;2.00;;;;;;;13.37;63.09;100595.91;5027734;28;20406;-42
2022/10/12 09:14:29;;;;;;;11.05;1.92;;;;;;;13.41;63.64;100590.69;5013091;28;20136;-42
2022/10/12 09:16:58;;;;;;;7.90;2.55;;;;;;;13.44;63.03;100595.91;5008724;28;20186;-41
2022/10/12 09:19:41;;;;;;;6.53;2.10;;;;;;;13.42;63.10;100592.41;5016754;28;20041;-41
2022/10/12 09:22:18;;;;;;;7.50;1.83;;;;;;;13.39;62.74;100595.03;5012159;28;20144;-41
2022/10/12 09:24:47;;;;;;;6.82;1.38;;;;;;;13.33;62.64;100596.81;5010052;28;20046;-41
2022/10/12 09:27:17;;;;;;;7.22;1.58;;;;;;;13.31;63.48;100592.50;5013697;28;20125;-41
2022/10/12 09:29:46;;;;;;;8.98;2.58;;;;;;;13.27;62.78;100594.22;5003532;28;20137;-41
2022/10/12 09:35:12;;;;;;;5.65;2.33;;;;;;;13.29;63.18;100595.09;5066083;27;20411;-42
2022/10/12 09:37:39;;;;;;;9.27;2.58;;;;;;;13.32;63.36;100600.28;5068264;28;20445;-41
2022/10/12 09:40:18;;;;;;;6.82;1.42;;;;;;;13.34;63.11;100595.94;5078020;28;20407;-41
2022/10/12 09:42:46;;;;;;;11.13;3.22;;;;;;;13.40;62.82;100596.78;5074827;28;20131;-40
2022/10/12 09:45:17;;;;;;;11.02;3.33;;;;;;;13.42;64.30;100589.81;5075990;27;20132;-40
2022/10/12 09:48:20;;;;;;;12.38;3.10;;;;;;;13.39;63.94;100580.31;5075776;28;20048;-41
2022/10/12 09:50:54;;;;;;;7.63;2.15;;;;;;;13.45;63.12;100574.19;5074714;28;20127;-41
2022/10/12 09:56:01;;;;;;;12.23;4.47;;;;;;;13.42;63.38;100561.19;5062271;27;21105;-40
2022/10/12 09:58:29;;;;;;;7.25;3.13;;;;;;;13.43;62.79;100550.78;5045734;28;20106;-41
2022/10/12 10:01:20;;;;;;;10.98;3.10;;;;;;;13.40;63.39;100560.34;5055563;28;20128;-41
2022/10/12 10:03:50;;;;;;;10.75;3.70;;;;;;;13.45;63.38;100553.38;5059038;28;20057;-40
2022/10/12 10:06:24;;;;;;;8.90;3.03;;;;;;;13.46;64.37;100562.91;5057981;28;20068;-41
2022/10/12 10:08:51;;;;;;;9.02;3.33;;;;;;;13.52;63.91;100559.44;5050902;28;20049;-41
2022/10/12 10:11:22;;;;;;;6.55;2.65;;;;;;;13.56;63.17;100551.59;5055332;28;20232;-42
2022/10/12 10:13:52;;;;;;;6.38;2.05;;;;;;;13.60;64.33;100562.84;5055545;28;20089;-41
2022/10/12 10:16:22;;;;;;;9.55;2.90;;;;;;;13.64;63.35;100553.28;5061551;28;20620;-42
2022/10/12 10:18:56;;;;;;;8.48;2.45;;;;;;;13.66;63.24;100546.31;5078058;28;20137;-41
2022/10/12 10:21:34;;;;;;;6.18;2.10;;;;;;;13.69;63.85;100541.97;5050377;28;20127;-40
2022/10/12 10:24:06;;;;;;;10.23;2.15;;;;;;;13.81;63.80;100525.38;5052149;28;20077;-41
2022/10/12 10:26:53;;;;;;;11.55;2.33;;;;;;;13.96;64.52;100526.13;5083804;28;20051;-42
2022/10/12 10:37:55;;;;;;;10.52;2.28;;;;;;;16.36;61.20;100508.91;5014605;28;20407;-42
2022/10/12 10:40:25;;;;;;;7.43;2.35;;;;;;;16.53;60.31;100505.94;4997910;28;20046;-42
2022/10/12 10:42:55;;;;;;;6.05;1.90;;;;;;;16.65;60.25;100516.16;4994508;28;20052;-42
2022/10/12 10:45:33;;;;;;;5.95;2.15;;;;;;;16.72;59.23;100502.97;4982595;28;23023;-42
2022/10/12 10:48:08;;;;;;;4.97;1.80;;;;;;;16.75;59.73;100511.59;4993536;28;20113;-42
2022/10/12 10:50:39;;;;;;;10.77;3.10;;;;;;;16.92;59.53;100515.63;4991097;28;20047;-41
2022/10/12 10:53:18;;;;;;;8.10;1.75;;;;;;;17.01;58.83;100510.16;4986465;28;20048;-42
2022/10/12 11:06:48;;;;;;;68.10;19.13;;;;;;;17.63;56.91;100514.91;5076663;27;20416;-42
2022/10/12 11:12:04;;;;;;;12.32;4.75;;;;;;;17.68;56.82;100507.78;5058600;28;20384;-42
2022/10/12 11:14:42;;;;;;;31.88;10.63;;;;;;;17.71;56.58;100512.94;5014940;28;20378;-42
2022/10/12 11:17:18;;;;;;;10.35;3.60;;;;;;;17.69;56.20;100515.59;5014441;28;20146;-42
2022/10/12 11:19:54;;;;;;;16.13;5.25;;;;;;;17.65;56.60;100508.72;5008863;28;20156;-42
2022/10/12 11:23:00;;;;;;;14.00;4.22;;;;;;;17.62;56.65;100516.66;5017750;28;20128;-42
2022/10/12 11:25:35;;;;;;;10.15;4.07;;;;;;;17.58;56.16;100507.16;5007036;28;20057;-43
2022/10/12 11:28:02;;;;;;;21.42;8.70;;;;;;;17.52;56.44;100509.91;5011721;28;20943;-42
2022/10/12 11:30:37;;;;;;;12.40;4.22;;;;;;;17.52;56.47;100512.53;5015964;28;20141;-43
2022/10/12 11:33:11;;;;;;;14.98;4.95;;;;;;;17.58;57.20;100497.53;5047597;28;20482;-42
2022/10/12 11:35:41;;;;;;;19.80;5.90;;;;;;;17.67;56.35;100501.66;5013703;28;20057;-42
2022/10/12 11:38:17;;;;;;;39.63;11.82;;;;;;;17.76;56.82;100486.66;5013147;28;20049;-42
2022/10/12 11:43:29;;;;;;;44.40;20.25;;;;;;;17.85;56.20;100468.06;5034915;27;21129;-42
2022/10/12 11:45:59;;;;;;;14.80;7.05;;;;;;;17.85;55.71;100449.72;5009825;28;20152;-43
2022/10/12 11:48:30;;;;;;;29.85;13.88;;;;;;;17.89;55.61;100451.34;5039713;28;20136;-42
2022/10/12 11:50:58;;;;;;;45.80;21.25;;;;;;;17.91;56.30;100457.41;5019856;28;20548;-42
2022/10/12 11:56:26;;;;;;;21.70;8.48;;;;;;;18.08;55.29;100463.94;5080522;27;20420;-42
2022/10/12 11:58:59;;;;;;;17.67;7.57;;;;;;;17.95;54.75;100468.66;5079265;28;20135;-42
2022/10/12 12:01:54;;;;;;;22.90;7.82;;;;;;;17.86;54.91;100467.16;5082436;28;20048;-42
2022/10/12 12:07:00;;;;;;;8.88;3.67;;;;;;;17.87;55.32;100471.50;5041569;27;20397;-41
2022/10/12 12:17:26;;;;;;;8.57;2.65;;;;;;;17.69;54.63;100468.44;5054178;28;20415;-40
2022/10/12 12:19:59;;;;;;;6.95;2.03;;;;;;;17.75;54.97;100448.22;5019580;28;20041;-42
2022/10/12 12:22:30;;;;;;;7.57;2.00;;;;;;;17.81;54.10;100453.31;5008184;28;20132;-42
2022/10/12 12:35:49;;;;;;;10.45;3.40;;;;;;;17.85;54.18;100452.34;5055198;28;20400;-42
2022/10/12 12:38:23;;;;;;;5.32;1.80;;;;;;;17.78;54.39;100456.00;5020656;28;20392;-43
2022/10/12 12:40:56;;;;;;;12.93;3.17;;;;;;;17.71;53.96;100447.47;5020044;28;20135;-43
2022/10/12 12:46:10;;;;;;;5.28;2.33;;;;;;;17.82;52.59;100441.94;5071347;27;20411;-42
2022/10/12 12:54:14;;;;;;;8.05;2.90;;;;;;;17.39;53.96;100450.00;5058769;28;20413;-42
2022/10/12 13:02:41;;;;;;;7.75;2.22;;;;;;;17.23;54.50;100443.41;5017588;27;20411;-42
2022/10/12 13:13:49;;;;;;;5.68;1.52;;;;;;;17.07;54.00;100442.03;5037487;28;20414;-42
2022/10/12 13:16:56;;;;;;;5.25;1.40;;;;;;;17.02;54.46;100427.31;5022159;28;20069;-42
2022/10/12 13:19:43;;;;;;;8.27;2.15;;;;;;;16.98;54.19;100417.81;5024217;28;20049;-42
2022/10/12 13:22:17;;;;;;;28.15;10.57;;;;;;;16.94;54.81;100417.88;5021658;28;20056;-42
2022/10/12 13:24:49;;;;;;;32.95;10.98;;;;;;;16.94;54.18;100417.88;5023061;28;20069;-42
2022/10/12 13:27:22;;;;;;;28.27;11.15;;;;;;;16.94;54.71;100417.88;5020354;28;20137;-42
2022/10/12 13:32:57;;;;;;;11.45;4.82;;;;;;;17.06;53.95;100415.91;5044308;28;20411;-41
2022/10/12 13:38:24;;;;;;;9.60;2.30;;;;;;;17.10;55.18;100420.16;5073693;27;20405;-44
2022/10/12 13:54:49;;;;;;;6.78;1.60;;;;;;;17.38;54.66;100385.44;5001301;28;20404;-41